• Join FlightAware (Why Join?)
  • Login
  • US Flag 
09:38AM EDT


 

Airport Tracker/Info


-or-


 

Live Flight TrackerFlight Track Log ✈ SWA118 ✈ 13-Apr-2013 ✈ KDEN - KSAN

Flight Track Log - Related Links

Times and Time Zones

All times are in EDT time to prevent confusion due to time zone crossing. See the SWA118 flight status page for this flight to view local times or setup timezone preferences in your user account.

Time Position Orientation Groundspeed Altitude Reporting Facility
EDT Latitude Longitude Course Direction KTS MPH feet Rate Location/Type
11:44PM 39.9000 -104.7667 252° West 248 285 9,600  Level Denver TRACON
11:45PM 39.8639 -104.8264 232° Southwest 251 289 11,300 1,860 Climbing Denver Center
11:46PM 39.8239 -104.9342 244° Southwest 336 387 12,900 2,820 Climbing Denver Center
11:47PM 39.7825 -105.0392 243° Southwest 324 373 17,100 3,120 Climbing Denver Center
11:48PM 39.7417 -105.1425 243° Southwest 324 373 19,300 2,400 Climbing Denver Center
11:49PM 39.6972 -105.2533 243° Southwest 344 396 22,000 2,160 Climbing Denver Center
11:50PM 39.6550 -105.3619 243° Southwest 338 389 23,700 900 Climbing Denver Center
11:51PM 39.6078 -105.4803 243° Southwest 371 427 24,000 120 Climbing Denver Center
11:52PM 39.5406 -105.6231 239° Southwest 380 437 24,000  Level Denver Center
11:53PM 39.4797 -105.7336 235° Southwest 376 433 24,000  Level Denver Center
11:54PM 39.4192 -105.8536 237° Southwest 372 428 24,000  Level Denver Center
11:55PM 39.3603 -105.9658 236° Southwest 372 428 24,000  Level Denver Center
11:56PM 39.3014 -106.0761 235° Southwest 372 428 24,000  Level Denver Center
11:57PM 39.2469 -106.1789 236° Southwest 369 425 24,000  Level Denver Center
11:58PM 39.1936 -106.2814 236° Southwest 362 417 24,000  Level Denver Center
11:59PM 39.1300 -106.3986 235° Southwest 358 412 24,000  Level Denver Center
12:00AM 39.0772 -106.4983 236° Southwest 353 406 24,000 840 Level Denver Center
12:01AM 39.0253 -106.5944 235° Southwest 345 397 25,700 960 Climbing Denver Center
12:02AM 38.9656 -106.7036 235° Southwest 336 387 26,000 900 Climbing Denver Center
12:03AM 38.9128 -106.8031 236° Southwest 348 400 27,600 1,620 Climbing Denver Center
12:04AM 38.8567 -106.9075 235° Southwest 345 397 29,300 1,140 Climbing Denver Center
12:05AM 38.8008 -107.0103 235° Southwest 348 400 30,000 300 Climbing Denver Center
12:06AM 38.7414 -107.1186 235° Southwest 370 426 30,000  Level Denver Center
12:07AM 38.6822 -107.2250 235° Southwest 385 443 30,000  Level Denver Center
12:08AM 38.6258 -107.3292 235° Southwest 373 429 30,000 840 Level Denver Center
12:09AM 38.5617 -107.4447 235° Southwest 357 411 31,800 1,200 Climbing Denver Center
12:10AM 38.5069 -107.5458 235° Southwest 360 414 32,500 1,500 Climbing Denver Center
12:11AM 38.4508 -107.6467 235° Southwest 364 419 34,900 1,680 Climbing Denver Center
12:12AM 38.3906 -107.7550 235° Southwest 344 396 36,000 540 Climbing Denver Center
12:13AM 38.3369 -107.8517 235° Southwest 346 398 36,000  Level Denver Center
12:14AM 38.2825 -107.9528 236° Southwest 358 412 36,000  Level Denver Center
12:15AM 38.2325 -108.0586 239° Southwest 363 418 36,000  Level Denver Center
12:16AM 38.1711 -108.1847 238° Southwest 373 429 36,000  Level Denver Center
12:17AM 38.1172 -108.2925 238° Southwest 375 432 36,000  Level Denver Center
12:18AM 38.0575 -108.4128 238° Southwest 370 426 36,000  Level Denver Center
12:19AM 38.0061 -108.5186 238° Southwest 368 423 36,000  Level Denver Center
12:20AM 37.9531 -108.6208 237° Southwest 366 421 36,000  Level Denver Center
12:21AM 37.9008 -108.7267 238° Southwest 368 423 36,000  Level Denver Center
12:22AM 37.8394 -108.8525 238° Southwest 374 430 36,000  Level Denver Center
12:23AM 37.7856 -108.9556 237° Southwest 370 426 36,000  Level Denver Center
12:24AM 37.7319 -109.0628 238° Southwest 375 432 36,000  Level Denver Center
12:25AM 37.6703 -109.1853 238° Southwest 372 428 36,000  Level Denver Center
12:26AM 37.6167 -109.2889 237° Southwest 370 426 36,000  Level Denver Center
12:27AM 37.5644 -109.3933 238° Southwest 369 425 36,000  Level Denver Center
12:28AM 37.5031 -109.5125 237° Southwest 365 420 36,000  Level Denver Center
12:29AM 37.4511 -109.6142 237° Southwest 362 417 36,000  Level Denver Center
12:30AM 37.3981 -109.7167 237° Southwest 367 422 36,000  Level Denver Center
12:31AM 37.3344 -109.8389 237° Southwest 374 430 36,000  Level Denver Center
12:32AM 37.2800 -109.9447 237° Southwest 377 434 36,000  Level Denver Center
12:33AM 37.2264 -110.0489 237° Southwest 373 429 36,000  Level Denver Center
12:34AM 37.1750 -110.1475 237° Southwest 358 412 36,000  Level Denver Center
12:35AM 37.1178 -110.2561 237° Southwest 358 412 36,000  Level Denver Center
12:36AM 37.0642 -110.3597 237° Southwest 356 410 36,100  Climbing Denver Center
12:37AM 37.0086 -110.4650 237° Southwest 362 417 36,000 -60 Descending Denver Center
12:38AM 36.9533 -110.5672 236° Southwest 356 410 36,000  Level Denver Center
12:39AM 36.8978 -110.6733 237° Southwest 363 418 36,000  Level Denver Center
12:40AM 36.8422 -110.7783 237° Southwest 363 418 36,000  Level Denver Center
12:41AM 36.7872 -110.8814 236° Southwest 357 411 36,000  Level Denver Center
12:42AM 36.7328 -110.9839 236° Southwest 355 409 36,000  Level Denver Center
12:43AM 36.6789 -111.0858 237° Southwest 352 405 36,000  Level Denver Center
12:44AM 36.6239 -111.1881 236° Southwest 354 407 36,000  Level Denver Center
12:45AM 36.5686 -111.2889 236° Southwest 353 406 36,000  Level Denver Center
12:46AM 36.5072 -111.3886 233° Southwest 358 412 36,000  Level Denver Center
12:47AM 36.4447 -111.4881 232° Southwest 362 417 36,000  Level Denver Center
12:48AM 36.3822 -111.5900 233° Southwest 367 422 36,000  Level Denver Center
12:49AM 36.3197 -111.6889 232° Southwest 366 421 36,000  Level Denver Center
12:50AM 36.2589 -111.7903 233° Southwest 366 421 36,000  Level Denver Center
12:51AM 36.1961 -111.8897 232° Southwest 366 421 36,000  Level Denver Center
12:52AM 36.1308 -111.9936 232° Southwest 376 433 36,000  Level Denver Center
12:53AM 36.0658 -112.0972 232° Southwest 380 437 36,000  Level Denver Center
12:54AM 36.0483 -112.1250 232° Southwest 380 437 36,000  Level Los Angeles Center
12:55AM 35.9828 -112.2303 232° Southwest 389 448 36,000  Level Los Angeles Center
12:56AM 35.9050 -112.3536 232° Southwest 382 440 36,000  Level Los Angeles Center
12:57AM 35.8403 -112.4550 232° Southwest 379 436 36,000  Level Los Angeles Center
12:58AM 35.7758 -112.5564 232° Southwest 379 436 36,000  Level Los Angeles Center
12:59AM 35.7114 -112.6586 232° Southwest 380 437 36,000  Level Los Angeles Center
01:00AM 35.6469 -112.7586 232° Southwest 379 436 36,000  Level Los Angeles Center
01:01AM 35.5672 -112.8822 232° Southwest 381 438 36,000  Level Los Angeles Center
01:02AM 35.4942 -112.9981 232° Southwest 391 450 36,000  Level Los Angeles Center
01:03AM 35.4264 -113.1028 232° Southwest 392 451 36,000  Level Los Angeles Center
01:04AM 35.3589 -113.2056 231° Southwest 388 447 36,000  Level Los Angeles Center
01:05AM 35.2900 -113.3122 232° Southwest 391 450 36,000  Level Los Angeles Center
01:06AM 35.2225 -113.4167 232° Southwest 394 453 36,000  Level Los Angeles Center
01:07AM 35.1542 -113.5222 232° Southwest 398 458 36,000  Level Los Angeles Center
01:08AM 35.0864 -113.6261 231° Southwest 395 455 36,000  Level Los Angeles Center
01:09AM 35.0172 -113.7319 231° Southwest 399 459 36,000  Level Los Angeles Center
01:10AM 34.9475 -113.8367 231° Southwest 401 461 36,000  Level Los Angeles Center
01:11AM 34.8781 -113.9431 232° Southwest 403 464 36,000  Level Los Angeles Center
01:12AM 34.8044 -114.0528 231° Southwest 405 466 36,000  Level Los Angeles Center
01:13AM 34.7336 -114.1600 231° Southwest 406 467 36,000  Level Los Angeles Center
01:14AM 34.6619 -114.2661 231° Southwest 406 467 36,000  Level Los Angeles Center
01:15AM 34.5911 -114.3697 230° Southwest 401 461 36,000  Level Los Angeles Center
01:16AM 34.5206 -114.4761 231° Southwest 403 464 36,000  Level Los Angeles Center
01:17AM 34.4503 -114.5828 231° Southwest 404 465 36,000 -360 Level Los Angeles Center
01:18AM 34.3789 -114.6858 230° Southwest 402 463 35,300 -840 Descending Los Angeles Center
01:19AM 34.3075 -114.7936 231° Southwest 410 472 34,400 -1,080 Descending Los Angeles Center
01:20AM 34.2200 -114.9217 230° Southwest 412 474 33,200 -1,140 Descending Los Angeles Center
01:21AM 34.1461 -115.0292 230° Southwest 416 479 32,200 -960 Descending Los Angeles Center
01:22AM 34.0717 -115.1394 231° Southwest 422 486 31,300 -900 Descending Los Angeles Center
01:23AM 33.9969 -115.2481 230° Southwest 423 487 30,400 -960 Descending Los Angeles Center
01:24AM 33.9214 -115.3586 231° Southwest 428 493 29,400 -960 Descending Los Angeles Center
01:25AM 33.8447 -115.4700 230° Southwest 432 497 28,500 -960 Descending Los Angeles Center
01:26AM 33.7672 -115.5808 230° Southwest 433 498 27,500 -960 Descending Los Angeles Center
01:27AM 33.6908 -115.6925 231° Southwest 435 501 26,600 -960 Descending Los Angeles Center
01:28AM 33.6128 -115.8042 230° Southwest 436 502 25,600 -1,020 Descending Los Angeles Center
01:29AM 33.5242 -115.9061 224° Southwest 445 512 24,600 -1,080 Descending Los Angeles Center
01:30AM 33.4311 -116.0028 221° Southwest 446 513 23,500 -1,800 Descending Los Angeles Center
01:31AM 33.3386 -116.0983 221° Southwest 442 509 21,000 -2,460 Descending Los Angeles Center
01:32AM 33.2533 -116.1883 221° Southwest 422 486 18,600 -2,340 Descending Los Angeles Center
01:33AM 33.1719 -116.2719 221° Southwest 396 456 16,300 -2,220 Descending Los Angeles Center
01:34AM 33.0947 -116.3519 221° Southwest 378 435 14,200 -2,160 Descending Los Angeles Center
01:35AM 33.0128 -116.4361 221° Southwest 358 412 12,000 -1,140 Descending Los Angeles Center
01:36AM 32.9325 -116.4869 208° Southwest 333 383 12,000 -900 Level Los Angeles Center
01:37AM 32.8456 -116.5400 207° Southwest 340 391 10,300 -1,440 Descending Los Angeles Center
01:38AM 32.8003 -116.6231 237° Southwest 305 351 9,200 -1,260 Descending Los Angeles Center
01:39AM 32.7622 -116.7019 240° Southwest 284 327 7,800 -1,260 Descending Los Angeles Center
01:40AM 32.7278 -116.7750 241° Southwest 263 303 6,700 -1,200 Descending Los Angeles Center
01:41AM 32.6972 -116.8475 243° Southwest 250 288 5,500 -1,140 Descending Los Angeles Center
01:42AM 32.6833 -116.8833 245° Southwest 240 276 5,200 -1,080 Descending Southern California TRACON
01:43AM 32.6833 -116.9500 270° West 226 260 4,100 -1,140 Descending Southern California TRACON
01:44AM 32.6833 -117.0167 270° West 203 234 3,000 -1,200 Descending Southern California TRACON
01:45AM 32.7000 -117.0667 292° West 174 200 1,800 -900 Descending Southern California TRACON
01:46AM 32.7167 -117.1167 292° West 146 168 1,300 -600 Descending Southern California TRACON
01:46AM 32.7206 -117.1397 281° West 144 166 800 -540 Descending Los Angeles Center
01:48AM 32.7356 -117.1894 290° West 143 165 300 -420 Descending Los Angeles Center
01:50AM 32.7333 -117.1833 281° West  Level FlightAware Approximate